createdAt,value
2023-02-23T00:01:54.070Z,123.47
2023-02-23T00:04:21.017Z,139.05
2023-02-23T00:06:47.877Z,136.32
2023-02-23T00:09:23.186Z,129.95
2023-02-23T00:11:57.567Z,120.50
2023-02-23T00:14:29.302Z,133.82
2023-02-23T00:16:57.217Z,130.35
2023-02-23T00:19:25.108Z,103.07
2023-02-23T00:21:52.882Z,106.63
2023-02-23T00:24:20.662Z,118.00
2023-02-23T00:26:48.435Z,118.35
2023-02-23T00:29:23.296Z,114.50
2023-02-23T00:31:51.879Z,117.93
2023-02-23T00:34:21.166Z,133.82
2023-02-23T00:36:50.994Z,113.10
2023-02-23T00:39:26.505Z,126.25
2023-02-23T00:41:53.860Z,112.30
2023-02-23T00:44:23.539Z,135.45
2023-02-23T00:46:51.554Z,123.70
2023-02-23T00:49:19.694Z,108.67
2023-02-23T00:51:47.031Z,146.73
2023-02-23T00:54:15.278Z,109.20
2023-02-23T00:56:42.347Z,115.78
2023-02-23T00:59:09.784Z,97.45
2023-02-23T01:01:37.662Z,107.37
2023-02-23T01:04:05.342Z,120.45
2023-02-23T01:06:32.421Z,126.43
2023-02-23T01:08:59.235Z,126.68
2023-02-23T01:11:30.969Z,123.90
2023-02-23T01:13:59.618Z,121.53
2023-02-23T01:16:29.510Z,112.90
2023-02-23T01:18:59.216Z,137.38
2023-02-23T01:21:30.321Z,119.38
2023-02-23T01:23:57.451Z,127.40
2023-02-23T01:26:25.496Z,125.90
2023-02-23T01:28:55.022Z,120.68
2023-02-23T01:31:23.802Z,126.50
2023-02-23T01:34:00.002Z,113.47
2023-02-23T01:36:29.027Z,130.27
2023-02-23T01:38:57.370Z,123.13
2023-02-23T01:41:26.879Z,151.98
2023-02-23T01:44:13.329Z,122.95
2023-02-23T01:46:45.387Z,109.97
2023-02-23T01:49:20.239Z,115.78
2023-02-23T01:51:52.401Z,104.13
2023-02-23T01:54:23.583Z,109.47
2023-02-23T01:56:58.106Z,111.68
2023-02-23T01:59:34.689Z,104.53
2023-02-23T02:02:05.186Z,101.30
2023-02-23T02:04:44.194Z,104.33
2023-02-23T02:07:23.787Z,105.32
2023-02-23T02:10:12.907Z,126.13
2023-02-23T02:12:41.481Z,102.35
2023-02-23T02:15:17.113Z,116.25
2023-02-23T02:18:23.564Z,112.07
2023-02-23T02:21:06.029Z,101.85
2023-02-23T02:23:54.069Z,111.72
2023-02-23T02:26:39.604Z,94.28
2023-02-23T02:29:36.780Z,104.03
2023-02-23T02:32:18.496Z,107.97
2023-02-23T02:34:54.576Z,115.35
2023-02-23T02:37:35.997Z,110.25
2023-02-23T02:40:28.467Z,102.78
2023-02-23T02:43:12.928Z,99.30
2023-02-23T02:45:51.182Z,110.63
2023-02-23T02:48:31.075Z,103.22
2023-02-23T02:51:21.728Z,109.43
2023-02-23T02:54:17.730Z,111.60
2023-02-23T02:56:45.141Z,98.70
2023-02-23T02:59:36.185Z,91.23
2023-02-23T03:02:24.778Z,93.18
2023-02-23T03:05:10.298Z,110.10
2023-02-23T03:08:02.276Z,108.93
2023-02-23T03:11:14.613Z,108.18
2023-02-23T03:14:10.906Z,110.67
2023-02-23T03:16:58.874Z,99.43
2023-02-23T03:19:50.974Z,98.15
2023-02-23T03:22:44.541Z,104.10
2023-02-23T03:25:42.102Z,94.40
2023-02-23T03:28:31.279Z,108.17
2023-02-23T03:31:30.902Z,107.65
2023-02-23T03:34:40.171Z,90.38
2023-02-23T03:37:37.990Z,98.18
2023-02-23T03:40:40.396Z,101.03
2023-02-23T03:43:34.830Z,108.03
2023-02-23T03:46:23.413Z,112.88
2023-02-23T03:49:11.711Z,93.82
2023-02-23T03:52:00.042Z,91.25
2023-02-23T03:55:00.798Z,92.60
2023-02-23T03:57:48.315Z,95.30
2023-02-23T04:00:42.890Z,92.03
2023-02-23T04:03:31.213Z,95.78
2023-02-23T04:06:17.723Z,90.18
2023-02-23T04:09:03.468Z,94.95
2023-02-23T04:12:16.338Z,92.90
2023-02-23T04:15:27.760Z,96.72
2023-02-23T04:17:54.687Z,97.63
2023-02-23T04:20:22.381Z,101.97
2023-02-23T04:22:49.404Z,99.15
2023-02-23T04:25:17.949Z,97.03
2023-02-23T04:27:44.811Z,101.13
2023-02-23T04:30:12.048Z,104.35
2023-02-23T04:32:38.998Z,115.28
2023-02-23T04:35:06.343Z,101.00
2023-02-23T04:37:33.119Z,100.50
2023-02-23T04:39:59.822Z,105.03
2023-02-23T04:42:26.598Z,97.20
2023-02-23T04:44:53.333Z,106.40
2023-02-23T04:47:20.063Z,102.03
2023-02-23T04:49:46.922Z,106.40
2023-02-23T04:52:13.665Z,111.93
2023-02-23T04:54:41.813Z,115.10
2023-02-23T04:57:09.651Z,119.97
2023-02-23T04:59:36.481Z,113.88
2023-02-23T05:02:03.536Z,115.77
2023-02-23T05:04:30.795Z,117.97
2023-02-23T05:06:57.562Z,127.68
2023-02-23T05:09:24.334Z,117.45
2023-02-23T05:11:51.043Z,142.52
2023-02-23T05:14:17.757Z,124.43
2023-02-23T05:16:44.615Z,118.50
2023-02-23T05:19:12.167Z,116.60
2023-02-23T05:21:39.037Z,118.82
2023-02-23T05:24:06.089Z,116.15
2023-02-23T05:26:33.061Z,113.23
2023-02-23T05:28:59.961Z,129.60
2023-02-23T05:31:27.103Z,129.95
2023-02-23T05:33:54.047Z,130.00
2023-02-23T05:36:22.051Z,139.93
2023-02-23T05:38:49.396Z,124.27
2023-02-23T05:41:19.156Z,122.93
2023-02-23T05:43:47.670Z,135.45
2023-02-23T05:46:17.674Z,130.13
2023-02-23T05:48:44.401Z,134.52
2023-02-23T05:51:14.078Z,153.37
2023-02-23T05:53:41.726Z,165.90
2023-02-23T05:56:13.424Z,201.98
2023-02-23T05:58:40.210Z,171.00
2023-02-23T06:01:06.926Z,127.75
2023-02-23T06:03:34.231Z,144.90
2023-02-23T06:06:00.961Z,163.52
2023-02-23T06:08:27.766Z,142.43
2023-02-23T06:10:54.522Z,157.98
2023-02-23T06:13:21.413Z,179.23
2023-02-23T06:15:49.550Z,135.07
2023-02-23T06:18:17.651Z,142.60
2023-02-23T06:20:45.947Z,132.63
2023-02-23T06:23:15.688Z,137.27
2023-02-23T06:25:43.989Z,126.07
2023-02-23T06:28:10.946Z,123.10
2023-02-23T06:30:38.669Z,132.95
2023-02-23T06:33:06.181Z,124.43
2023-02-23T06:35:34.486Z,114.93
2023-02-23T06:38:01.936Z,105.43
2023-02-23T06:40:29.169Z,114.87
2023-02-23T06:42:55.874Z,112.80
2023-02-23T06:45:22.916Z,104.22
2023-02-23T06:47:49.776Z,113.22
2023-02-23T06:50:16.890Z,117.82
2023-02-23T06:52:43.573Z,126.93
2023-02-23T06:55:10.277Z,124.03
2023-02-23T06:57:36.997Z,113.78
2023-02-23T07:00:04.592Z,112.18
2023-02-23T07:02:31.830Z,122.72
2023-02-23T07:04:58.950Z,113.20
2023-02-23T07:07:25.940Z,111.38
2023-02-23T07:09:52.755Z,98.93
2023-02-23T07:12:19.462Z,123.15
2023-02-23T07:14:46.220Z,93.88
2023-02-23T07:17:13.167Z,101.83
2023-02-23T07:19:40.040Z,100.65
2023-02-23T07:22:06.715Z,101.13
2023-02-23T07:24:33.614Z,98.72
2023-02-23T07:27:00.368Z,105.50
2023-02-23T07:29:28.380Z,94.77
2023-02-23T07:31:55.584Z,96.53
2023-02-23T07:34:22.680Z,90.63
2023-02-23T07:36:49.599Z,89.93
2023-02-23T07:39:16.330Z,101.57
2023-02-23T07:41:43.353Z,93.73
2023-02-23T07:44:10.126Z,91.75
2023-02-23T07:46:37.002Z,88.22
2023-02-23T07:49:04.019Z,76.97
2023-02-23T07:51:30.843Z,90.75
2023-02-23T07:54:01.747Z,97.97
2023-02-23T07:56:28.531Z,95.22
2023-02-23T07:58:55.646Z,84.75
2023-02-23T08:01:23.091Z,81.05
2023-02-23T08:03:50.438Z,63.15
2023-02-23T08:06:18.352Z,83.57
2023-02-23T08:08:45.170Z,74.72
2023-02-23T08:11:12.003Z,81.43
2023-02-23T08:13:39.408Z,73.80
2023-02-23T08:16:06.487Z,72.93
2023-02-23T08:18:33.658Z,75.50
2023-02-23T08:21:05.110Z,72.07
2023-02-23T08:23:35.597Z,74.65
2023-02-23T08:26:03.293Z,78.03
2023-02-23T08:28:31.027Z,61.50
2023-02-23T08:30:59.369Z,63.60
2023-02-23T08:33:26.391Z,71.38
2023-02-23T08:35:53.780Z,60.30
2023-02-23T08:38:20.941Z,47.53
2023-02-23T08:40:47.662Z,59.97
2023-02-23T08:43:14.433Z,48.80
2023-02-23T08:45:41.194Z,44.47
2023-02-23T08:48:08.898Z,51.85
2023-02-23T08:50:35.785Z,43.13
2023-02-23T08:53:02.612Z,33.50
2023-02-23T08:55:29.538Z,40.63
2023-02-23T08:57:56.349Z,38.95
2023-02-23T09:00:23.493Z,34.35
2023-02-23T09:02:50.245Z,34.15
2023-02-23T09:05:17.505Z,38.30
2023-02-23T09:07:47.257Z,41.23
2023-02-23T09:10:17.565Z,38.88
2023-02-23T09:12:44.394Z,39.20
2023-02-23T09:15:11.765Z,31.25
2023-02-23T09:17:38.915Z,37.75
2023-02-23T09:20:06.278Z,34.23
2023-02-23T09:22:36.763Z,31.58
2023-02-23T09:25:04.909Z,32.63
2023-02-23T09:27:31.889Z,30.40
2023-02-23T09:29:58.564Z,28.70
2023-02-23T09:32:25.498Z,25.33
2023-02-23T09:34:52.605Z,22.73
2023-02-23T09:37:19.372Z,17.13
2023-02-23T09:39:46.267Z,20.35
2023-02-23T09:42:36.830Z,21.88
2023-02-23T09:45:24.264Z,21.27
2023-02-23T09:48:16.795Z,24.13
2023-02-23T09:50:52.189Z,22.52
2023-02-23T09:53:29.239Z,25.05
2023-02-23T09:55:58.481Z,27.00
2023-02-23T09:58:31.415Z,27.70
2023-02-23T10:01:33.260Z,25.42
2023-02-23T10:04:05.220Z,29.88
2023-02-23T10:06:31.976Z,27.67
2023-02-23T10:09:07.495Z,23.00
2023-02-23T10:11:39.151Z,22.17
2023-02-23T10:14:38.995Z,21.42
2023-02-23T10:17:20.892Z,21.17
2023-02-23T10:19:59.405Z,18.92
2023-02-23T10:22:27.624Z,19.67
2023-02-23T10:25:10.249Z,15.83
2023-02-23T10:27:42.644Z,12.07
2023-02-23T10:30:26.262Z,15.43
2023-02-23T10:33:13.616Z,15.73
2023-02-23T10:35:40.412Z,14.73
2023-02-23T10:38:14.561Z,9.57
2023-02-23T10:40:43.121Z,11.13
2023-02-23T10:43:12.922Z,10.55
2023-02-23T10:45:48.476Z,14.27
2023-02-23T10:48:25.624Z,16.17
2023-02-23T10:51:02.857Z,16.50
2023-02-23T10:53:36.909Z,18.98
2023-02-23T10:56:10.909Z,22.40
2023-02-23T10:58:51.224Z,21.15
2023-02-23T11:01:36.220Z,16.77
2023-02-23T11:04:22.255Z,15.47
2023-02-23T11:06:50.810Z,13.82
2023-02-23T11:09:45.056Z,18.10
2023-02-23T11:12:25.561Z,14.93
2023-02-23T11:14:57.633Z,8.27
2023-02-23T11:17:32.697Z,14.60
2023-02-23T11:20:02.844Z,12.48
2023-02-23T11:22:36.153Z,7.32
2023-02-23T11:25:15.535Z,14.27
2023-02-23T11:27:47.213Z,11.13
2023-02-23T11:30:14.392Z,13.40
2023-02-23T11:32:42.588Z,17.77
2023-02-23T11:35:21.200Z,16.17
2023-02-23T11:37:48.805Z,15.82
2023-02-23T11:40:28.404Z,20.17
2023-02-23T11:43:16.993Z,22.17
2023-02-23T11:45:56.461Z,20.13
2023-02-23T11:48:35.189Z,23.90
2023-02-23T11:51:02.492Z,20.98
2023-02-23T11:53:35.089Z,21.25
2023-02-23T11:56:08.172Z,18.30
2023-02-23T11:58:49.979Z,20.15
2023-02-23T12:01:23.552Z,17.58
2023-02-23T12:03:58.251Z,20.63
2023-02-23T12:06:32.788Z,26.40
2023-02-23T12:09:23.331Z,24.30
2023-02-23T12:12:06.737Z,23.35
2023-02-23T12:15:00.147Z,23.63
2023-02-23T12:17:44.223Z,25.65
2023-02-23T12:20:31.900Z,28.92
2023-02-23T12:23:07.865Z,24.87
2023-02-23T12:25:46.243Z,26.70
2023-02-23T12:28:59.497Z,30.27
2023-02-23T12:31:44.369Z,28.55
2023-02-23T12:34:25.335Z,26.50
2023-02-23T12:37:12.634Z,33.00
2023-02-23T12:39:45.133Z,30.85
2023-02-23T12:42:24.851Z,28.30
2023-02-23T12:44:58.803Z,30.42
2023-02-23T12:47:49.306Z,22.55
2023-02-23T12:50:30.613Z,25.60
2023-02-23T12:53:27.949Z,25.83
2023-02-23T12:56:06.385Z,23.85
2023-02-23T12:59:06.767Z,27.17
2023-02-23T13:01:33.477Z,24.83
2023-02-23T13:04:20.013Z,22.50
2023-02-23T13:06:59.433Z,24.52
2023-02-23T13:10:18.523Z,24.60
2023-02-23T13:12:57.594Z,24.17
2023-02-23T13:15:35.619Z,22.52
2023-02-23T13:18:23.250Z,23.27
2023-02-23T13:21:04.607Z,19.25
2023-02-23T13:23:44.887Z,19.70
2023-02-23T13:26:40.777Z,18.88
2023-02-23T13:29:54.041Z,23.25
2023-02-23T13:32:22.184Z,27.37
2023-02-23T13:34:57.716Z,28.88
2023-02-23T13:38:00.154Z,23.10
2023-02-23T13:40:36.623Z,29.13
2023-02-23T13:43:23.821Z,27.50
2023-02-23T13:46:03.982Z,26.83
2023-02-23T13:49:02.421Z,27.38
2023-02-23T13:51:53.403Z,27.50
2023-02-23T13:54:24.881Z,34.33
2023-02-23T13:56:52.662Z,28.13
2023-02-23T13:59:33.300Z,24.90
2023-02-23T14:02:16.461Z,24.33
2023-02-23T14:04:43.460Z,26.05
2023-02-23T14:07:10.403Z,26.45
2023-02-23T14:09:53.735Z,27.80
2023-02-23T14:12:34.174Z,26.30
2023-02-23T14:15:26.275Z,24.88
2023-02-23T14:17:59.142Z,28.65
2023-02-23T14:21:02.925Z,27.10
2023-02-23T14:23:35.332Z,30.00
2023-02-23T14:26:30.143Z,29.40
2023-02-23T14:29:09.477Z,23.67
2023-02-23T14:31:36.749Z,29.00
2023-02-23T14:34:09.526Z,29.90
2023-02-23T14:36:42.177Z,27.63
2023-02-23T14:39:29.190Z,24.87
2023-02-23T14:41:57.903Z,23.65
2023-02-23T14:44:42.366Z,27.33
2023-02-23T14:47:13.604Z,23.15
2023-02-23T14:50:00.447Z,22.08
2023-02-23T14:52:40.903Z,22.77
2023-02-23T14:55:29.441Z,19.85
2023-02-23T14:57:58.007Z,20.80
2023-02-23T15:00:32.499Z,21.98
2023-02-23T15:03:02.749Z,20.83
2023-02-23T15:05:54.814Z,24.93
2023-02-23T15:08:24.768Z,24.98
2023-02-23T15:11:07.175Z,24.08
2023-02-23T15:13:40.407Z,25.77
2023-02-23T15:16:23.244Z,24.05
2023-02-23T15:18:51.703Z,28.37
2023-02-23T15:21:21.154Z,28.08
2023-02-23T15:23:51.144Z,26.17
2023-02-23T15:26:35.088Z,7.40
2023-02-23T15:29:10.990Z,4.75
2023-02-23T15:31:41.104Z,5.30
2023-02-23T15:34:11.231Z,6.30
2023-02-23T15:36:40.035Z,5.93
2023-02-23T15:39:12.153Z,5.28
2023-02-23T15:41:40.006Z,6.10
2023-02-23T15:44:14.621Z,13.17
2023-02-23T15:46:44.413Z,7.63
2023-02-23T15:49:17.385Z,7.68
2023-02-23T15:51:51.207Z,9.43
2023-02-23T15:54:17.937Z,8.15
2023-02-23T15:56:57.164Z,10.57
2023-02-23T15:59:34.775Z,8.18
2023-02-23T16:02:03.150Z,7.72
2023-02-23T16:04:36.698Z,5.43
2023-02-23T16:07:20.151Z,14.73
2023-02-23T16:10:05.932Z,15.03
2023-02-23T16:12:38.109Z,9.05
2023-02-23T16:15:29.535Z,13.05
2023-02-23T16:18:04.768Z,11.02
2023-02-23T16:20:38.411Z,12.02
2023-02-23T16:23:08.297Z,10.53
2023-02-23T16:25:35.414Z,13.20
2023-02-23T16:28:10.140Z,13.77
2023-02-23T16:30:51.106Z,5.65
2023-02-23T16:33:23.898Z,13.18
2023-02-23T16:36:08.781Z,9.80
2023-02-23T16:38:38.594Z,9.65
2023-02-23T16:41:07.656Z,12.60
2023-02-23T16:43:35.218Z,18.70
2023-02-23T16:46:02.551Z,12.60
2023-02-23T16:48:30.395Z,8.30
2023-02-23T16:50:57.720Z,18.60
2023-02-23T16:53:25.297Z,11.18
2023-02-23T16:56:01.121Z,10.00
2023-02-23T16:58:30.688Z,12.90
2023-02-23T17:00:57.724Z,12.13
2023-02-23T17:03:26.846Z,20.00
2023-02-23T17:05:54.010Z,14.50
2023-02-23T17:08:21.087Z,12.32
2023-02-23T17:10:51.080Z,17.00
2023-02-23T17:13:26.592Z,10.57
2023-02-23T17:15:56.236Z,12.43
2023-02-23T17:18:31.646Z,18.95
2023-02-23T17:21:01.366Z,16.63
2023-02-23T17:23:38.261Z,14.25
2023-02-23T17:26:07.621Z,11.77
2023-02-23T17:28:34.547Z,12.02
2023-02-23T17:31:02.780Z,13.45
2023-02-23T17:33:33.474Z,14.27
2023-02-23T17:36:02.565Z,7.32
2023-02-23T17:38:34.125Z,8.40
2023-02-23T17:41:06.594Z,9.68
2023-02-23T17:43:33.621Z,20.30
2023-02-23T17:46:00.671Z,18.40
2023-02-23T17:48:28.161Z,15.88
2023-02-23T17:51:03.106Z,21.70
2023-02-23T17:53:30.915Z,16.77
2023-02-23T17:55:58.420Z,19.70
2023-02-23T17:58:25.553Z,8.93
2023-02-23T18:00:58.056Z,14.52
2023-02-23T18:03:31.860Z,14.20
2023-02-23T18:06:03.555Z,11.52
2023-02-23T18:08:30.546Z,13.85
2023-02-23T18:10:58.248Z,11.23
2023-02-23T18:13:26.415Z,13.65
2023-02-23T18:15:55.727Z,16.50
2023-02-23T18:18:24.108Z,17.25
2023-02-23T18:20:58.519Z,17.10
2023-02-23T18:23:29.023Z,11.57
2023-02-23T18:26:06.208Z,14.02
2023-02-23T18:28:34.773Z,13.47
2023-02-23T18:31:03.131Z,22.08
2023-02-23T18:33:31.519Z,14.07
2023-02-23T18:35:58.659Z,24.52
2023-02-23T18:38:25.673Z,15.95
2023-02-23T18:40:53.104Z,17.63
2023-02-23T18:43:19.917Z,18.48
2023-02-23T18:45:46.606Z,20.60
2023-02-23T18:48:19.667Z,16.30
2023-02-23T18:50:46.553Z,15.85
2023-02-23T18:53:13.308Z,14.17
2023-02-23T18:55:40.977Z,17.33
2023-02-23T18:58:07.800Z,17.90
2023-02-23T19:00:40.228Z,14.07
2023-02-23T19:03:07.448Z,16.38
2023-02-23T19:05:37.446Z,18.87
2023-02-23T19:08:08.243Z,8.30
2023-02-23T19:10:36.422Z,12.40
2023-02-23T19:13:03.378Z,10.85
2023-02-23T19:15:31.155Z,20.77
2023-02-23T19:17:57.905Z,17.70
2023-02-23T19:20:27.018Z,14.70
2023-02-23T19:22:53.816Z,17.15
2023-02-23T19:25:20.706Z,19.17
2023-02-23T19:27:47.451Z,20.77
2023-02-23T19:30:14.790Z,14.37
2023-02-23T19:32:43.337Z,15.23
2023-02-23T19:35:14.820Z,10.35
2023-02-23T19:37:49.478Z,15.80
2023-02-23T19:40:20.820Z,18.38
2023-02-23T19:42:52.776Z,14.90
2023-02-23T19:45:20.032Z,18.17
2023-02-23T19:47:46.830Z,15.27
2023-02-23T19:50:16.926Z,14.13
2023-02-23T19:52:45.314Z,20.25
2023-02-23T19:55:12.309Z,10.40
2023-02-23T19:57:39.044Z,14.43
2023-02-23T20:00:12.540Z,8.02
2023-02-23T20:02:43.834Z,9.30
2023-02-23T20:05:16.097Z,12.27
2023-02-23T20:07:43.578Z,13.90
2023-02-23T20:10:13.790Z,11.60
2023-02-23T20:12:40.603Z,10.77
2023-02-23T20:15:08.604Z,9.15
2023-02-23T20:17:35.802Z,14.13
2023-02-23T20:20:06.258Z,9.50
2023-02-23T20:22:33.488Z,13.82
2023-02-23T20:25:00.420Z,11.02
2023-02-23T20:27:29.988Z,11.30
2023-02-23T20:29:58.335Z,12.30
2023-02-23T20:32:25.136Z,8.10
2023-02-23T20:34:51.997Z,12.15
2023-02-23T20:37:18.957Z,10.77
2023-02-23T20:39:46.115Z,12.15
2023-02-23T20:42:12.844Z,8.32
2023-02-23T20:44:39.521Z,11.63
2023-02-23T20:47:09.996Z,15.85
2023-02-23T20:49:37.563Z,7.75
2023-02-23T20:52:04.872Z,10.23
2023-02-23T20:54:31.564Z,12.07
2023-02-23T20:57:07.805Z,11.10
2023-02-23T20:59:39.041Z,16.08
2023-02-23T21:02:06.756Z,13.77
2023-02-23T21:04:35.942Z,9.65
2023-02-23T21:07:05.403Z,11.07
2023-02-23T21:09:32.799Z,12.90
2023-02-23T21:11:59.562Z,11.13
2023-02-23T21:14:26.379Z,10.98
2023-02-23T21:16:53.168Z,13.30
2023-02-23T21:19:20.285Z,11.93
2023-02-23T21:21:49.958Z,10.80
2023-02-23T21:24:18.887Z,15.27
2023-02-23T21:26:45.715Z,9.52
2023-02-23T21:29:14.725Z,22.75
2023-02-23T21:31:42.935Z,10.65
2023-02-23T21:34:11.116Z,10.40
2023-02-23T21:36:38.660Z,9.45
2023-02-23T21:39:06.625Z,15.00
2023-02-23T21:41:33.844Z,16.70
2023-02-23T21:44:01.534Z,14.07
2023-02-23T21:46:28.588Z,10.90
2023-02-23T21:48:55.404Z,10.50
2023-02-23T21:51:22.501Z,12.93
2023-02-23T21:53:49.433Z,12.45
2023-02-23T21:56:22.401Z,10.18
2023-02-23T21:58:52.065Z,13.83
2023-02-23T22:01:24.525Z,14.45
2023-02-23T22:03:51.537Z,13.70
2023-02-23T22:06:21.582Z,9.38
2023-02-23T22:08:52.481Z,10.65
2023-02-23T22:11:22.097Z,9.37
2023-02-23T22:13:58.788Z,10.10
2023-02-23T22:16:29.557Z,12.43
2023-02-23T22:18:56.825Z,10.68
2023-02-23T22:21:23.786Z,19.52
2023-02-23T22:23:53.355Z,14.23
2023-02-23T22:26:20.637Z,9.65
2023-02-23T22:28:47.509Z,14.02
2023-02-23T22:31:14.607Z,17.73
2023-02-23T22:33:43.760Z,13.32
2023-02-23T22:36:20.728Z,14.57
2023-02-23T22:38:47.612Z,12.85
2023-02-23T22:41:14.720Z,14.05
2023-02-23T22:43:47.265Z,8.65
2023-02-23T22:46:16.540Z,15.38
2023-02-23T22:48:45.046Z,21.77
2023-02-23T22:51:13.811Z,20.17
2023-02-23T22:53:40.840Z,15.35
2023-02-23T22:56:08.501Z,13.52
2023-02-23T22:58:36.322Z,16.65
2023-02-23T23:01:04.899Z,13.73
2023-02-23T23:03:39.658Z,12.80
2023-02-23T23:06:09.097Z,17.40
2023-02-23T23:08:39.217Z,13.25
2023-02-23T23:11:09.875Z,28.83
2023-02-23T23:13:48.502Z,24.10
2023-02-23T23:16:31.072Z,18.88
2023-02-23T23:19:03.410Z,19.08
2023-02-23T23:21:33.431Z,9.68
2023-02-23T23:24:05.680Z,16.00
2023-02-23T23:26:34.680Z,13.07
2023-02-23T23:29:07.194Z,14.25
2023-02-23T23:31:35.322Z,13.20
2023-02-23T23:34:09.386Z,13.52
2023-02-23T23:36:53.189Z,8.75
2023-02-23T23:39:22.840Z,16.67
2023-02-23T23:41:50.302Z,10.93
2023-02-23T23:44:20.190Z,13.75
2023-02-23T23:46:50.818Z,7.72
2023-02-23T23:49:20.760Z,14.93
2023-02-23T23:51:50.503Z,7.30
2023-02-23T23:54:21.514Z,6.78
2023-02-23T23:56:49.655Z,11.13
2023-02-23T23:59:20.371Z,6.55
